createdAt,value
2023-02-17T05:48:54.398Z,6.57
2023-02-17T05:51:20.689Z,6.59
2023-02-17T05:53:46.991Z,6.61
2023-02-17T05:56:13.412Z,6.64
2023-02-17T05:58:39.694Z,6.60
2023-02-17T06:01:10.088Z,6.63
2023-02-17T06:03:36.412Z,6.65
2023-02-17T06:06:03.419Z,6.66
2023-02-17T06:08:29.803Z,6.67
2023-02-17T06:10:56.177Z,6.66
2023-02-17T06:13:22.512Z,6.66
2023-02-17T06:15:48.843Z,6.68
2023-02-17T06:18:15.288Z,6.71
2023-02-17T06:20:41.600Z,6.76
2023-02-17T06:23:07.968Z,6.77
2023-02-17T06:25:34.291Z,6.77
2023-02-17T06:28:00.645Z,6.82
2023-02-17T06:30:26.970Z,6.79
2023-02-17T06:32:53.272Z,6.83
2023-02-17T06:35:19.573Z,6.82
2023-02-17T06:37:45.889Z,6.83
2023-02-17T06:40:12.658Z,6.84
2023-02-17T06:42:39.009Z,6.92
2023-02-17T06:45:05.606Z,6.90
2023-02-17T06:47:33.387Z,6.93
2023-02-17T06:49:59.694Z,6.95
2023-02-17T06:52:26.257Z,7.03
2023-02-17T06:54:52.688Z,7.05
2023-02-17T06:57:19.385Z,7.09
2023-02-17T06:59:45.682Z,7.06
2023-02-17T07:02:13.230Z,7.09
2023-02-17T07:04:40.732Z,7.09
2023-02-17T07:07:07.612Z,7.08
2023-02-17T07:09:34.155Z,7.17
2023-02-17T07:12:01.155Z,7.22
2023-02-17T07:14:28.278Z,7.23
2023-02-17T07:16:54.610Z,7.23
2023-02-17T07:19:21.044Z,7.32
2023-02-17T07:21:47.338Z,7.32
2023-02-17T07:24:13.668Z,7.37
2023-02-17T07:26:40.351Z,7.41
2023-02-17T07:29:07.330Z,7.38
2023-02-17T07:31:34.464Z,7.42
2023-02-17T07:34:02.189Z,7.43
2023-02-17T07:36:28.779Z,7.46
2023-02-17T07:38:55.646Z,7.41
2023-02-17T07:41:24.057Z,7.49
2023-02-17T07:43:54.890Z,7.49
2023-02-17T07:46:21.526Z,7.51
2023-02-17T07:48:48.073Z,7.51
2023-02-17T07:51:17.147Z,7.55
2023-02-17T07:53:43.616Z,7.64
2023-02-17T07:56:12.819Z,7.66
2023-02-17T07:58:40.680Z,7.72
2023-02-17T08:01:08.113Z,7.70
2023-02-17T08:03:34.478Z,7.76
2023-02-17T08:06:00.998Z,7.81
2023-02-17T08:08:27.336Z,7.87
2023-02-17T08:10:53.612Z,7.88
2023-02-17T08:13:19.963Z,7.87
2023-02-17T08:15:46.280Z,7.92
2023-02-17T08:18:13.129Z,7.93
2023-02-17T08:20:39.445Z,7.97
2023-02-17T08:23:05.737Z,7.98
2023-02-17T08:25:33.993Z,8.04
2023-02-17T08:28:00.790Z,7.99
2023-02-17T08:30:27.200Z,8.00
2023-02-17T08:32:53.551Z,8.03
2023-02-17T08:35:19.896Z,8.03
2023-02-17T08:37:46.183Z,7.99
2023-02-17T08:40:12.509Z,7.99
2023-02-17T08:42:38.838Z,7.93
2023-02-17T08:45:05.883Z,7.95
2023-02-17T08:47:32.240Z,7.95
2023-02-17T08:49:58.635Z,7.92
2023-02-17T08:52:25.014Z,7.97
2023-02-17T08:54:52.606Z,7.97
2023-02-17T08:57:19.100Z,8.00
2023-02-17T08:59:45.475Z,8.02
2023-02-17T09:02:11.779Z,8.02
2023-02-17T09:04:38.131Z,8.05
2023-02-17T09:07:04.519Z,8.05
2023-02-17T09:09:30.850Z,8.07
2023-02-17T09:11:58.293Z,8.13
2023-02-17T09:14:24.596Z,8.14
2023-02-17T09:16:52.080Z,8.15
2023-02-17T09:19:18.459Z,8.15
2023-02-17T09:21:44.991Z,8.17
2023-02-17T09:24:11.383Z,8.21
2023-02-17T09:26:38.037Z,8.20
2023-02-17T09:29:05.117Z,8.19
2023-02-17T09:31:31.924Z,8.18
2023-02-17T09:33:58.632Z,8.21
2023-02-17T09:36:29.157Z,8.24
2023-02-17T09:38:55.563Z,8.23
2023-02-17T09:41:38.906Z,8.27
2023-02-17T09:44:12.877Z,8.28
2023-02-17T09:47:00.904Z,8.27
2023-02-17T09:49:35.345Z,8.30
2023-02-17T09:52:13.750Z,8.27
2023-02-17T09:55:29.509Z,8.28
2023-02-17T09:58:06.564Z,8.24
2023-02-17T10:00:40.431Z,8.21
2023-02-17T10:03:20.687Z,8.22
2023-02-17T10:06:02.467Z,8.23
2023-02-17T10:08:33.694Z,8.20
2023-02-17T10:11:07.787Z,8.21
2023-02-17T10:13:36.705Z,8.20
2023-02-17T10:16:11.506Z,8.20
2023-02-17T10:18:45.431Z,8.20
2023-02-17T10:21:18.331Z,8.17
2023-02-17T10:23:45.197Z,8.20
2023-02-17T10:26:46.903Z,8.18
2023-02-17T10:29:31.681Z,8.21
2023-02-17T10:32:00.916Z,8.25
2023-02-17T10:34:42.038Z,8.25
2023-02-17T10:37:18.586Z,8.29
2023-02-17T10:39:50.904Z,8.29
2023-02-17T10:42:37.998Z,8.36
2023-02-17T10:45:06.200Z,8.35
2023-02-17T10:47:36.593Z,8.36
2023-02-17T10:50:05.564Z,8.41
2023-02-17T10:52:37.331Z,8.45
2023-02-17T10:55:33.739Z,8.49
2023-02-17T10:58:34.004Z,8.44
2023-02-17T11:01:00.574Z,8.52
2023-02-17T11:03:29.487Z,8.52
2023-02-17T11:05:59.076Z,8.52
2023-02-17T11:08:30.401Z,8.54
2023-02-17T11:11:07.727Z,8.55
2023-02-17T11:13:42.785Z,8.58
2023-02-17T11:16:24.935Z,8.61
2023-02-17T11:18:52.231Z,8.60
2023-02-17T11:21:18.705Z,8.67
2023-02-17T11:24:01.753Z,8.74
2023-02-17T11:26:31.022Z,8.75
2023-02-17T11:29:15.635Z,8.79
2023-02-17T11:31:42.158Z,8.84
2023-02-17T11:34:15.951Z,8.85
2023-02-17T11:36:44.935Z,8.88
2023-02-17T11:39:21.688Z,8.92
2023-02-17T11:41:48.662Z,8.94
2023-02-17T11:44:28.736Z,8.95
2023-02-17T11:47:19.572Z,8.99
2023-02-17T11:50:04.717Z,9.02
2023-02-17T11:52:44.425Z,9.05
2023-02-17T11:55:15.350Z,9.13
2023-02-17T11:57:50.726Z,9.15
2023-02-17T12:00:37.842Z,9.22
2023-02-17T12:03:09.845Z,9.28
2023-02-17T12:06:01.509Z,9.31
2023-02-17T12:08:42.041Z,9.40
2023-02-17T12:11:30.168Z,9.43
2023-02-17T12:14:02.589Z,9.44
2023-02-17T12:16:59.759Z,9.49
2023-02-17T12:19:41.633Z,9.56
2023-02-17T12:22:16.579Z,9.60
2023-02-17T12:24:53.058Z,9.63
2023-02-17T12:27:26.093Z,9.70
2023-02-17T12:30:16.628Z,9.80
2023-02-17T12:33:01.621Z,9.84
2023-02-17T12:35:53.107Z,9.97
2023-02-17T12:38:33.283Z,9.98
2023-02-17T12:41:07.792Z,10.06
2023-02-17T12:43:36.709Z,10.10
2023-02-17T12:46:08.019Z,10.19
2023-02-17T12:48:47.747Z,10.26
2023-02-17T12:51:45.611Z,10.32
2023-02-17T12:54:11.794Z,10.37
2023-02-17T12:56:48.579Z,10.40
2023-02-17T12:59:22.470Z,10.43
2023-02-17T13:01:54.729Z,10.49
2023-02-17T13:04:24.135Z,10.52
2023-02-17T13:06:59.454Z,10.56
2023-02-17T13:09:36.703Z,10.62
2023-02-17T13:12:12.966Z,10.71
2023-02-17T13:14:48.899Z,10.76
2023-02-17T13:17:30.468Z,10.81
2023-02-17T13:20:24.451Z,10.84
2023-02-17T13:22:51.249Z,10.96
2023-02-17T13:25:29.904Z,11.00
2023-02-17T13:27:59.264Z,10.95
2023-02-17T13:30:28.511Z,11.02
2023-02-17T13:33:05.447Z,11.07
2023-02-17T13:35:34.770Z,11.16
2023-02-17T13:38:01.706Z,11.15
2023-02-17T13:40:37.674Z,11.20
2023-02-17T13:43:18.346Z,11.21
2023-02-17T13:46:00.179Z,11.27
2023-02-17T13:48:29.433Z,11.25
2023-02-17T13:51:03.754Z,11.21
2023-02-17T13:53:39.222Z,11.21
2023-02-17T13:56:24.557Z,11.25
2023-02-17T13:58:50.982Z,11.28
2023-02-17T14:01:27.708Z,11.28
2023-02-17T14:03:56.020Z,11.25
2023-02-17T14:06:33.648Z,11.04
2023-02-17T14:09:00.123Z,11.05
2023-02-17T14:11:28.396Z,11.07
2023-02-17T14:13:57.163Z,11.10
2023-02-17T14:16:30.522Z,11.24
2023-02-17T14:19:06.629Z,11.25
2023-02-17T14:21:34.268Z,11.11
2023-02-17T14:24:00.777Z,11.13
2023-02-17T14:26:32.108Z,11.41
2023-02-17T14:29:01.061Z,11.77
2023-02-17T14:31:28.689Z,11.71
2023-02-17T14:34:02.489Z,11.67
2023-02-17T14:36:37.605Z,11.72
2023-02-17T14:39:07.871Z,11.45
2023-02-17T14:41:34.647Z,11.41
2023-02-17T14:44:01.161Z,11.30
2023-02-17T14:46:28.005Z,11.18
2023-02-17T14:48:54.543Z,11.09
2023-02-17T14:51:23.422Z,11.23
2023-02-17T14:53:52.543Z,11.18
2023-02-17T14:56:33.187Z,11.42
2023-02-17T14:58:59.547Z,11.35
2023-02-17T15:01:26.238Z,11.60
2023-02-17T15:03:54.367Z,11.39
2023-02-17T15:06:29.352Z,11.34
2023-02-17T15:08:57.129Z,11.31
2023-02-17T15:11:35.602Z,11.26
2023-02-17T15:14:01.904Z,11.29
2023-02-17T15:16:28.745Z,11.33
2023-02-17T15:18:55.121Z,11.32
2023-02-17T15:21:25.083Z,11.18
2023-02-17T15:23:52.027Z,11.12
2023-02-17T15:26:18.890Z,10.89
2023-02-17T15:28:45.184Z,10.75
2023-02-17T15:31:15.325Z,10.72
2023-02-17T15:33:43.779Z,10.65
2023-02-17T15:36:15.908Z,10.63
2023-02-17T15:38:42.262Z,10.69
2023-02-17T15:41:20.144Z,10.62
2023-02-17T15:43:48.268Z,10.74
2023-02-17T15:46:17.121Z,10.92
2023-02-17T15:48:44.655Z,10.99
2023-02-17T15:51:13.023Z,11.03
2023-02-17T15:53:39.292Z,11.03
2023-02-17T15:56:12.362Z,11.08
2023-02-17T15:58:38.934Z,11.07
2023-02-17T16:01:05.347Z,11.13
2023-02-17T16:03:31.737Z,11.20
2023-02-17T16:05:58.094Z,11.17
2023-02-17T16:08:24.420Z,11.27
2023-02-17T16:10:50.736Z,11.26
2023-02-17T16:13:17.826Z,11.22
2023-02-17T16:15:44.603Z,11.33
2023-02-17T16:18:19.493Z,11.36
2023-02-17T16:20:46.012Z,11.34
2023-02-17T16:23:12.437Z,11.31
2023-02-17T16:25:41.215Z,11.83
2023-02-17T16:28:17.199Z,11.76
2023-02-17T16:30:44.500Z,11.67
2023-02-17T16:33:10.835Z,11.91
2023-02-17T16:35:37.973Z,11.68
2023-02-17T16:38:12.093Z,11.71
2023-02-17T16:40:42.803Z,11.72
2023-02-17T16:43:10.197Z,11.88
2023-02-17T16:45:36.508Z,11.89
2023-02-17T16:48:02.855Z,11.77
2023-02-17T16:50:32.647Z,11.49
2023-02-17T16:53:01.974Z,11.61
2023-02-17T16:55:31.536Z,11.49
2023-02-17T16:57:58.382Z,11.57
2023-02-17T17:00:28.086Z,11.63
2023-02-17T17:02:54.423Z,11.56
2023-02-17T17:05:21.421Z,11.65
2023-02-17T17:07:47.975Z,11.66
2023-02-17T17:10:18.355Z,11.79
2023-02-17T17:12:45.960Z,11.84
2023-02-17T17:15:13.585Z,11.86
2023-02-17T17:18:01.906Z,11.96
2023-02-17T17:20:31.803Z,11.92
2023-02-17T17:22:59.743Z,11.90
2023-02-17T17:25:27.195Z,11.89
2023-02-17T17:27:53.523Z,11.95
2023-02-17T17:30:23.673Z,11.91
2023-02-17T17:32:50.112Z,11.93
2023-02-17T17:35:17.078Z,11.87
2023-02-17T17:37:43.466Z,11.91
2023-02-17T17:40:33.623Z,11.95
2023-02-17T17:43:00.114Z,11.90
2023-02-17T17:45:26.556Z,11.88
2023-02-17T17:47:52.863Z,11.82
2023-02-17T17:50:23.139Z,11.82
2023-02-17T17:52:49.742Z,11.79
2023-02-17T17:55:16.256Z,11.68
2023-02-17T17:57:42.737Z,11.27
2023-02-17T18:00:13.042Z,10.48
2023-02-17T18:02:39.335Z,10.55
2023-02-17T18:05:05.970Z,10.49
2023-02-17T18:07:34.827Z,10.77
2023-02-17T18:10:04.410Z,11.17
2023-02-17T18:12:33.262Z,11.03
2023-02-17T18:15:00.013Z,11.46
2023-02-17T18:17:26.336Z,11.34
2023-02-17T18:19:52.760Z,11.74
2023-02-17T18:22:19.026Z,10.34
2023-02-17T18:24:45.320Z,10.35
2023-02-17T18:27:11.610Z,10.29
2023-02-17T18:29:37.986Z,10.19
2023-02-17T18:32:04.378Z,10.19
2023-02-17T18:34:30.744Z,10.14
2023-02-17T18:36:57.037Z,10.09
2023-02-17T18:39:23.317Z,10.03
2023-02-17T18:41:49.589Z,9.99
2023-02-17T18:44:15.888Z,9.91
2023-02-17T18:46:42.770Z,9.74
2023-02-17T18:49:09.473Z,9.59
2023-02-17T18:51:36.003Z,9.48
2023-02-17T18:54:04.765Z,9.49
2023-02-17T18:56:32.457Z,9.46
2023-02-17T18:58:59.217Z,9.41
2023-02-17T19:01:28.899Z,9.68
2023-02-17T19:03:55.640Z,9.63
2023-02-17T19:06:25.000Z,9.93
2023-02-17T19:08:51.564Z,9.81
2023-02-17T19:11:19.840Z,9.85
2023-02-17T19:13:46.605Z,9.68
2023-02-17T19:16:27.588Z,9.67
2023-02-17T19:18:54.912Z,9.67
2023-02-17T19:21:22.594Z,9.56
2023-02-17T19:23:49.981Z,9.52
2023-02-17T19:26:17.896Z,9.45
2023-02-17T19:28:45.002Z,9.35
2023-02-17T19:31:17.346Z,9.37
2023-02-17T19:33:44.195Z,9.23
2023-02-17T19:36:16.234Z,9.30
2023-02-17T19:38:42.630Z,9.25
2023-02-17T19:41:11.076Z,9.26
2023-02-17T19:43:38.030Z,9.13
2023-02-17T19:46:04.764Z,9.13
2023-02-17T19:48:31.523Z,9.05
2023-02-17T19:51:00.206Z,9.05
2023-02-17T19:53:27.073Z,9.02
2023-02-17T19:55:53.389Z,8.94
2023-02-17T19:58:19.908Z,9.02
2023-02-17T20:00:46.219Z,9.06
2023-02-17T20:03:12.524Z,8.98
2023-02-17T20:05:40.105Z,9.00
2023-02-17T20:08:06.542Z,8.80
2023-02-17T20:10:33.455Z,8.76
2023-02-17T20:12:59.739Z,8.66
2023-02-17T20:15:26.048Z,8.69
2023-02-17T20:17:52.363Z,8.70
2023-02-17T20:20:18.779Z,8.64
2023-02-17T20:22:45.067Z,8.62
2023-02-17T20:25:11.370Z,8.50
2023-02-17T20:27:37.774Z,8.44
2023-02-17T20:30:04.588Z,8.45
2023-02-17T20:32:31.519Z,8.39
2023-02-17T20:34:57.888Z,8.33
2023-02-17T20:37:24.175Z,8.46
2023-02-17T20:39:50.660Z,8.38
2023-02-17T20:42:17.194Z,8.32
2023-02-17T20:44:43.589Z,8.38
2023-02-17T20:47:10.987Z,8.35
2023-02-17T20:49:37.300Z,8.32
2023-02-17T20:52:03.581Z,8.33
2023-02-17T20:54:29.910Z,8.35
2023-02-17T20:56:56.199Z,8.30
2023-02-17T20:59:22.499Z,8.30
2023-02-17T21:01:48.771Z,8.23
2023-02-17T21:04:15.114Z,8.22
2023-02-17T21:06:41.724Z,8.24
2023-02-17T21:09:13.343Z,8.22
2023-02-17T21:11:39.949Z,8.18
2023-02-17T21:14:06.248Z,8.10
2023-02-17T21:16:32.679Z,8.06
2023-02-17T21:18:59.965Z,8.12
2023-02-17T21:21:26.968Z,8.08
2023-02-17T21:23:54.257Z,8.02
2023-02-17T21:26:20.831Z,7.98
2023-02-17T21:28:47.284Z,7.97
2023-02-17T21:31:14.429Z,7.96
2023-02-17T21:33:42.011Z,7.95
2023-02-17T21:36:13.598Z,7.82
2023-02-17T21:38:40.254Z,7.85
2023-02-17T21:41:09.659Z,7.75
2023-02-17T21:43:36.583Z,7.75
2023-02-17T21:46:10.332Z,7.68
2023-02-17T21:48:37.324Z,7.63
2023-02-17T21:51:08.772Z,7.66
2023-02-17T21:53:35.792Z,7.72
2023-02-17T21:56:02.494Z,7.69
2023-02-17T21:58:29.276Z,7.72
2023-02-17T22:00:55.626Z,7.67
2023-02-17T22:03:22.352Z,7.68
2023-02-17T22:05:49.073Z,7.68
2023-02-17T22:08:15.465Z,7.62
2023-02-17T22:10:42.558Z,7.67
2023-02-17T22:13:09.275Z,7.63
2023-02-17T22:15:36.323Z,7.51
2023-02-17T22:18:03.205Z,7.52
2023-02-17T22:20:29.719Z,7.58
2023-02-17T22:22:56.715Z,7.51
2023-02-17T22:25:23.018Z,7.56
2023-02-17T22:27:49.315Z,7.47
2023-02-17T22:30:16.093Z,7.51
2023-02-17T22:32:42.405Z,7.53
2023-02-17T22:35:10.215Z,7.52
2023-02-17T22:37:37.777Z,7.50
2023-02-17T22:40:05.967Z,7.48
2023-02-17T22:42:32.233Z,7.41
2023-02-17T22:44:58.516Z,7.39
2023-02-17T22:47:24.823Z,7.38
2023-02-17T22:49:51.093Z,7.31
2023-02-17T22:52:17.400Z,7.34
2023-02-17T22:54:43.679Z,7.35
2023-02-17T22:57:10.114Z,7.37
2023-02-17T22:59:36.427Z,7.30
2023-02-17T23:02:02.742Z,7.32
2023-02-17T23:04:29.093Z,7.30
2023-02-17T23:06:55.430Z,7.27
2023-02-17T23:09:21.734Z,7.24
2023-02-17T23:11:48.069Z,7.23
2023-02-17T23:14:16.643Z,7.15
2023-02-17T23:16:43.417Z,7.12
2023-02-17T23:19:12.730Z,7.08
2023-02-17T23:21:43.676Z,7.07
2023-02-17T23:24:10.172Z,7.00
2023-02-17T23:26:36.542Z,6.97
2023-02-17T23:29:02.828Z,7.03
2023-02-17T23:31:29.195Z,7.00
2023-02-17T23:33:55.651Z,7.03
2023-02-17T23:36:21.961Z,6.95
2023-02-17T23:38:48.246Z,6.99
2023-02-17T23:41:14.559Z,6.94
2023-02-17T23:43:40.874Z,6.95
2023-02-17T23:46:07.628Z,6.88
2023-02-17T23:48:34.235Z,6.90
2023-02-17T23:51:02.585Z,6.86
2023-02-17T23:53:31.842Z,6.93
2023-02-17T23:56:06.805Z,6.92
2023-02-17T23:58:34.692Z,6.80
